Time;durP1;ratioP1;P1;durP2;ratioP2;P2;SDS_P1;SDS_P2;PMS_P1;PMS_P2;Temp;Humidity;BMP_temperature;BMP_pressure;BME280_temperature;BME280_humidity;BME280_pressure;Samples;Min_cycle;Max_cycle;Signal;HPM_P1;HPM_P2
2023/09/01 00:00:04;;;;;;;6.40;3.07;;;;;;;20.16;73.51;100086.63;5068014;28;20233;-59
2023/09/01 00:02:30;;;;;;;6.97;3.00;;;;;;;20.18;73.58;100087.84;5070106;28;20179;-59
2023/09/01 00:04:55;;;;;;;6.47;2.80;;;;;;;20.19;73.35;100085.81;5067975;28;20767;-59
2023/09/01 00:07:21;;;;;;;7.10;2.83;;;;;;;20.19;73.26;100086.63;5067849;28;20928;-59
2023/09/01 00:09:46;;;;;;;6.73;2.60;;;;;;;20.20;73.41;100088.28;5049979;28;20171;-59
2023/09/01 00:12:12;;;;;;;8.20;3.20;;;;;;;20.21;73.20;100069.03;5072566;28;20171;-59
2023/09/01 00:14:37;;;;;;;7.30;3.37;;;;;;;20.20;73.10;100082.53;5088433;28;20174;-59
2023/09/01 00:17:03;;;;;;;6.87;2.80;;;;;;;20.12;73.71;100080.03;5085597;28;20170;-58
2023/09/01 00:19:28;;;;;;;7.83;2.37;;;;;;;20.07;73.80;100072.59;5086288;28;20187;-58
2023/09/01 00:21:54;;;;;;;5.70;2.77;;;;;;;20.07;73.89;100069.72;5058581;28;20978;-59
2023/09/01 00:24:19;;;;;;;8.70;2.90;;;;;;;20.00;74.21;100075.38;5088730;28;20209;-59
2023/09/01 00:26:45;;;;;;;6.73;2.70;;;;;;;20.04;74.14;100076.25;5088311;28;20255;-59
2023/09/01 00:29:11;;;;;;;9.00;2.80;;;;;;;20.08;73.74;100079.16;5093759;28;20194;-59
2023/09/01 00:31:37;;;;;;;8.53;3.10;;;;;;;20.11;73.78;100073.44;5089953;28;20411;-59
2023/09/01 00:34:03;;;;;;;8.70;3.47;;;;;;;20.11;73.63;100084.13;5107748;28;20173;-59
2023/09/01 00:36:29;;;;;;;7.37;3.10;;;;;;;20.10;73.45;100083.28;5107691;28;20160;-59
2023/09/01 00:38:54;;;;;;;5.00;2.67;;;;;;;20.11;73.48;100084.13;5099339;28;20440;-59
2023/09/01 00:41:19;;;;;;;6.53;3.07;;;;;;;20.09;73.48;100077.94;5100819;28;20177;-59
2023/09/01 00:43:45;;;;;;;5.93;2.87;;;;;;;19.98;74.18;100074.97;5107931;28;20247;-59
2023/09/01 00:46:10;;;;;;;8.73;2.93;;;;;;;20.00;73.95;100083.13;5107456;28;20177;-59
2023/09/01 00:48:37;;;;;;;12.83;3.17;;;;;;;20.03;73.81;100080.34;5106334;28;20250;-59
2023/09/01 00:51:02;;;;;;;7.70;2.60;;;;;;;20.04;nan;100078.28;5072214;28;20666;-59
2023/09/01 00:53:28;;;;;;;6.70;2.30;;;;;;;20.05;73.59;100080.75;5087368;28;20507;-60
2023/09/01 00:55:56;;;;;;;5.40;2.77;;;;;;;20.05;73.45;100074.19;5089683;28;20190;-60
2023/09/01 00:58:21;;;;;;;4.93;2.43;;;;;;;20.04;nan;100078.28;5087325;28;20185;-59
2023/09/01 01:00:47;;;;;;;7.70;3.17;;;;;;;19.84;74.34;100074.84;5089723;28;20439;-59
2023/09/01 01:03:12;;;;;;;8.77;3.10;;;;;;;19.92;73.94;100085.13;5105281;28;20193;-59
2023/09/01 01:05:40;;;;;;;9.50;3.40;;;;;;;19.97;73.71;100079.03;5108433;28;20173;-59
2023/09/01 01:08:15;;;;;;;6.77;2.80;;;;;;;19.94;73.78;100071.25;5093623;28;20221;-60
2023/09/01 01:10:57;;;;;;;5.43;2.50;;;;;;;20.00;73.30;100072.50;5070177;28;20456;-59
2023/09/01 01:13:23;;;;;;;8.87;3.40;;;;;;;19.79;74.08;100072.31;5095273;28;20907;-59
2023/09/01 01:15:48;;;;;;;7.17;2.60;;;;;;;19.89;73.97;100076.50;5073408;28;20406;-60
2023/09/01 01:18:14;;;;;;;4.30;2.70;;;;;;;19.81;73.99;100072.75;5089609;28;20158;-59
2023/09/01 01:20:52;;;;;;;7.10;2.60;;;;;;;19.55;75.01;100072.91;5097245;28;20182;-59
2023/09/01 01:23:17;;;;;;;4.90;2.90;;;;;;;19.47;75.04;100068.31;5103409;28;20249;-59
2023/09/01 01:25:50;;;;;;;5.20;2.50;;;;;;;19.45;75.07;100070.75;5089462;28;21117;-59
2023/09/01 01:28:16;;;;;;;5.57;2.40;;;;;;;19.45;75.14;100076.47;5085054;28;20243;-59
2023/09/01 01:30:41;;;;;;;5.80;2.47;;;;;;;19.47;74.85;100076.91;5091317;28;20460;-59
2023/09/01 01:33:25;;;;;;;5.37;2.40;;;;;;;19.48;74.51;100077.72;5092755;28;20645;-59
2023/09/01 01:36:18;;;;;;;4.37;2.00;;;;;;;19.60;74.04;100071.72;5098467;28;21164;-59
2023/09/01 01:38:45;;;;;;;5.33;2.20;;;;;;;19.59;74.37;100068.03;5089740;28;20515;-59
2023/09/01 01:41:19;;;;;;;4.23;2.03;;;;;;;19.69;73.66;100072.22;5090538;28;20428;-58
2023/09/01 01:43:45;;;;;;;5.20;2.70;;;;;;;19.50;74.14;100075.28;5069902;28;20412;-59
2023/09/01 01:46:10;;;;;;;4.37;1.97;;;;;;;19.59;74.05;100072.94;5088833;28;20482;-59
2023/09/01 01:48:37;;;;;;;5.50;2.37;;;;;;;19.57;74.13;100081.91;5093897;28;20218;-59
2023/09/01 01:51:05;;;;;;;3.97;2.27;;;;;;;19.66;73.70;100082.41;5091642;28;20202;-59
2023/09/01 01:53:34;;;;;;;7.37;3.17;;;;;;;19.67;73.49;100086.91;5099162;28;20918;-59
2023/09/01 01:56:01;;;;;;;3.67;2.20;;;;;;;19.69;73.48;100078.78;5111722;28;20527;-59
2023/09/01 01:58:27;;;;;;;4.93;2.17;;;;;;;19.64;73.67;100086.91;5111950;28;20448;-59
2023/09/01 02:00:52;;;;;;;3.63;2.17;;;;;;;19.72;73.18;100083.69;5111704;28;20449;-59
2023/09/01 02:03:18;;;;;;;7.30;2.20;;;;;;;19.79;72.67;100089.53;5097078;28;20186;-59
2023/09/01 02:05:43;;;;;;;5.73;2.27;;;;;;;19.80;72.67;100088.28;5091353;28;20216;-59
2023/09/01 02:08:08;;;;;;;4.80;2.20;;;;;;;19.80;72.48;100082.56;5093385;28;20206;-58
2023/09/01 02:10:34;;;;;;;7.03;2.47;;;;;;;19.74;72.87;100075.56;5094634;28;20181;-59
2023/09/01 02:13:01;;;;;;;5.20;2.40;;;;;;;19.80;72.56;100078.88;5110819;28;20174;-59
2023/09/01 02:15:26;;;;;;;6.97;2.70;;;;;;;19.69;73.28;100077.94;5093642;28;20190;-59
2023/09/01 02:17:51;;;;;;;3.17;1.80;;;;;;;19.66;73.03;100076.69;5087213;28;20539;-60
2023/09/01 02:20:17;;;;;;;5.53;2.03;;;;;;;19.69;73.16;100077.94;5113938;27;20186;-59
2023/09/01 02:22:47;;;;;;;5.33;2.33;;;;;;;19.68;73.28;100080.00;5081304;28;20236;-59
2023/09/01 02:25:13;;;;;;;5.10;2.17;;;;;;;19.70;72.98;100080.41;5108082;28;20183;-59
2023/09/01 02:27:39;;;;;;;5.30;2.43;;;;;;;19.74;72.75;100069.81;5104558;28;20516;-59
2023/09/01 02:30:06;;;;;;;6.50;2.83;;;;;;;19.73;72.84;100082.50;5110137;28;20535;-59
2023/09/01 02:32:31;;;;;;;3.70;2.20;;;;;;;19.77;72.60;100076.81;5100102;28;20527;-59
2023/09/01 02:34:57;;;;;;;4.80;2.13;;;;;;;19.68;73.03;100085.72;5089733;28;20517;-60
2023/09/01 02:37:22;;;;;;;5.33;2.20;;;;;;;19.65;73.28;100080.78;5090414;28;20175;-58
2023/09/01 02:39:48;;;;;;;4.53;1.83;;;;;;;19.66;72.97;100087.34;5108794;28;20186;-59
2023/09/01 02:42:13;;;;;;;3.47;1.80;;;;;;;19.64;72.99;100087.72;5110779;28;20169;-58
2023/09/01 02:44:39;;;;;;;5.90;3.00;;;;;;;19.56;73.04;100079.47;5101910;28;20185;-59
2023/09/01 02:47:04;;;;;;;3.80;1.87;;;;;;;19.57;73.37;100079.03;5072384;28;20221;-59
2023/09/01 02:49:30;;;;;;;5.77;2.10;;;;;;;19.54;73.44;100079.84;5090468;28;20197;-59
2023/09/01 02:51:56;;;;;;;5.20;2.07;;;;;;;19.56;73.37;100074.53;5090356;28;20543;-58
2023/09/01 02:54:22;;;;;;;5.90;2.10;;;;;;;19.57;73.57;100081.09;5099821;28;20186;-59
2023/09/01 02:56:47;;;;;;;8.03;2.07;;;;;;;19.54;73.44;100079.84;5109584;28;20482;-59
2023/09/01 02:59:12;;;;;;;3.83;1.83;;;;;;;19.61;73.29;100088.50;5073334;28;20248;-59
2023/09/01 03:01:38;;;;;;;4.27;2.00;;;;;;;19.57;73.29;100092.56;5100875;28;20178;-59
2023/09/01 03:04:06;;;;;;;4.67;1.97;;;;;;;19.51;73.69;100086.34;5110490;28;20177;-59
2023/09/01 03:06:33;;;;;;;3.37;2.10;;;;;;;19.47;73.35;100082.63;5109965;28;20255;-59
2023/09/01 03:08:59;;;;;;;5.07;1.90;;;;;;;19.44;73.70;100088.31;5106809;28;20416;-59
2023/09/01 03:11:24;;;;;;;3.90;1.77;;;;;;;19.49;73.69;100087.97;5096853;28;20954;-59
2023/09/01 03:13:50;;;;;;;7.87;1.97;;;;;;;19.51;73.33;100083.50;5071167;28;20699;-59
2023/09/01 03:16:15;;;;;;;3.83;2.33;;;;;;;19.48;73.72;100083.47;5089649;28;20808;-60
2023/09/01 03:18:41;;;;;;;6.87;2.20;;;;;;;19.52;73.43;100090.06;5098664;28;20547;-59
2023/09/01 03:21:10;;;;;;;6.10;2.23;;;;;;;19.47;73.62;100082.63;5092544;28;20711;-59
2023/09/01 03:23:36;;;;;;;3.47;1.40;;;;;;;19.45;73.74;100087.94;5087967;28;20303;-59
2023/09/01 03:26:03;;;;;;;5.40;1.87;;;;;;;19.42;73.76;100080.13;5105863;28;21072;-59
2023/09/01 03:28:29;;;;;;;6.67;2.17;;;;;;;19.37;73.85;100080.47;5109809;28;20198;-60
2023/09/01 03:30:54;;;;;;;7.53;2.10;;;;;;;19.38;74.35;100090.72;5105436;28;20496;-59
2023/09/01 03:33:21;;;;;;;6.73;1.80;;;;;;;19.42;73.88;100082.16;5105991;28;20205;-59
2023/09/01 03:35:47;;;;;;;4.50;1.90;;;;;;;19.49;73.58;100079.38;5091709;28;20598;-59
2023/09/01 03:38:12;;;;;;;6.27;2.60;;;;;;;19.52;73.52;100067.16;5091313;28;20411;-59
2023/09/01 03:40:38;;;;;;;4.60;2.00;;;;;;;19.42;74.27;100071.53;5106046;28;20645;-59
2023/09/01 03:43:05;;;;;;;6.20;1.87;;;;;;;19.51;73.52;100068.38;5099188;28;20285;-59
2023/09/01 03:45:31;;;;;;;4.67;1.80;;;;;;;19.52;73.74;100070.00;5089357;28;20182;-59
2023/09/01 03:47:56;;;;;;;5.07;1.37;;;;;;;19.47;74.31;100070.38;5089296;28;20548;-59
2023/09/01 03:50:22;;;;;;;4.83;2.20;;;;;;;19.47;74.03;100071.16;5088780;28;20198;-59
2023/09/01 03:52:47;;;;;;;4.10;1.87;;;;;;;19.44;74.23;100071.97;5091085;28;20186;-59
2023/09/01 03:55:12;;;;;;;10.03;1.90;;;;;;;19.49;74.15;100070.78;5090018;28;20197;-59
2023/09/01 03:57:38;;;;;;;7.67;1.80;;;;;;;19.47;74.26;100071.16;5101093;28;20555;-59
2023/09/01 04:00:11;;;;;;;3.20;1.60;;;;;;;19.52;74.16;100067.16;5105913;28;20677;-60
2023/09/01 04:02:37;;;;;;;3.30;1.47;;;;;;;19.47;74.83;100071.16;5091018;28;20208;-59
2023/09/01 04:05:03;;;;;;;2.63;1.83;;;;;;;19.50;74.91;100081.84;5089826;28;20440;-59
2023/09/01 04:07:29;;;;;;;6.00;1.80;;;;;;;19.51;74.29;100083.50;5096793;28;20205;-59
2023/09/01 04:09:55;;;;;;;5.53;1.70;;;;;;;19.54;74.11;100088.44;5088532;28;20915;-59
2023/09/01 04:12:21;;;;;;;3.63;1.70;;;;;;;19.56;74.27;100086.00;5088678;28;20182;-59
2023/09/01 04:14:47;;;;;;;4.97;1.73;;;;;;;19.37;77.83;100097.63;5088750;28;20453;-59
2023/09/01 04:17:12;;;;;;;3.27;1.70;;;;;;;19.47;76.60;100099.81;5089637;28;20201;-59
2023/09/01 04:19:38;;;;;;;5.50;2.00;;;;;;;19.49;75.95;100091.66;5094225;28;20216;-59
2023/09/01 04:22:03;;;;;;;6.60;1.90;;;;;;;19.47;76.99;100096.13;5097935;28;20296;-58
2023/09/01 04:24:29;;;;;;;3.20;1.77;;;;;;;19.47;76.30;100096.94;5100090;28;20188;-59
2023/09/01 04:26:54;;;;;;;3.87;1.50;;;;;;;19.47;76.34;100105.53;5095693;28;20221;-58
2023/09/01 04:29:20;;;;;;;3.17;1.60;;;;;;;19.45;76.91;100105.09;5101326;28;20185;-59
2023/09/01 04:31:47;;;;;;;3.40;1.47;;;;;;;19.45;78.79;100110.84;5104160;28;20583;-59
2023/09/01 04:34:13;;;;;;;3.90;1.60;;;;;;;19.56;76.75;100106.03;5090994;28;20185;-59
2023/09/01 04:36:39;;;;;;;3.80;1.30;;;;;;;19.62;76.05;100113.06;5089229;28;20427;-59
2023/09/01 04:39:04;;;;;;;7.80;1.97;;;;;;;19.68;75.26;100117.25;5089354;28;20192;-59
2023/09/01 04:41:31;;;;;;;8.50;1.70;;;;;;;19.70;76.25;100125.41;5101078;28;20428;-59
2023/09/01 04:43:58;;;;;;;4.30;1.80;;;;;;;19.50;78.14;100135.41;5088531;28;20190;-59
2023/09/01 04:46:23;;;;;;;5.00;1.30;;;;;;;19.48;78.36;100130.09;5098954;28;20871;-59
2023/09/01 04:48:48;;;;;;;4.27;2.00;;;;;;;19.49;78.44;100123.16;5095895;28;20436;-59
2023/09/01 04:51:14;;;;;;;5.00;1.70;;;;;;;19.53;78.99;100132.63;5105031;28;20181;-59
2023/09/01 04:53:40;;;;;;;4.50;2.00;;;;;;;19.47;80.04;100133.34;5087587;28;20189;-58
2023/09/01 04:56:06;;;;;;;3.40;1.90;;;;;;;19.60;78.25;100137.56;5092512;28;20266;-59
2023/09/01 04:58:31;;;;;;;3.53;1.60;;;;;;;19.63;78.07;100137.63;5087422;28;20973;-58
2023/09/01 05:00:57;;;;;;;4.47;2.00;;;;;;;19.53;80.35;100137.50;5090304;28;20597;-59
2023/09/01 05:03:22;;;;;;;3.70;1.33;;;;;;;19.62;78.44;100144.56;5103084;28;20523;-59
2023/09/01 05:05:49;;;;;;;4.40;1.63;;;;;;;19.64;78.34;100132.72;5106288;28;20166;-59
2023/09/01 05:08:14;;;;;;;7.53;1.90;;;;;;;19.67;78.12;100127.03;5103841;28;20228;-59
2023/09/01 05:10:40;;;;;;;5.53;1.67;;;;;;;19.72;77.88;100132.41;5107445;28;20423;-59
2023/09/01 05:13:05;;;;;;;6.20;1.40;;;;;;;19.53;79.44;100128.91;5097221;28;20256;-59
2023/09/01 05:15:31;;;;;;;5.67;1.70;;;;;;;19.51;80.52;100132.16;5085316;28;20186;-59
2023/09/01 05:17:57;;;;;;;3.73;1.20;;;;;;;19.58;79.53;100122.84;5088495;28;20182;-58
2023/09/01 05:20:22;;;;;;;3.27;1.50;;;;;;;19.68;78.78;100128.69;5103229;28;20190;-59
2023/09/01 05:22:48;;;;;;;4.70;2.07;;;;;;;19.63;79.66;100126.19;5110678;28;20225;-59
2023/09/01 05:25:14;;;;;;;4.63;1.90;;;;;;;19.51;80.75;100135.03;5106981;28;20189;-58
2023/09/01 05:27:39;;;;;;;7.53;1.90;;;;;;;19.42;81.83;100137.38;5111860;28;20539;-59
2023/09/01 05:30:06;;;;;;;6.07;1.50;;;;;;;19.34;82.33;100146.28;5112006;28;20404;-59
2023/09/01 05:32:31;;;;;;;3.47;1.73;;;;;;;19.39;81.97;100137.34;5103817;28;20231;-59
2023/09/01 05:34:56;;;;;;;3.90;1.73;;;;;;;19.30;82.99;100151.97;5091306;28;20856;-59
2023/09/01 05:37:22;;;;;;;4.40;1.67;;;;;;;19.34;82.48;100155.69;5093450;28;20177;-59
2023/09/01 05:39:47;;;;;;;2.80;1.53;;;;;;;19.39;82.28;100161.06;5091659;28;20182;-58
2023/09/01 05:42:14;;;;;;;6.53;1.63;;;;;;;19.43;81.74;100161.13;5091802;28;20263;-59
2023/09/01 05:44:40;;;;;;;2.90;1.40;;;;;;;19.58;80.27;100169.50;5097218;28;20181;-59
2023/09/01 05:47:06;;;;;;;2.40;1.30;;;;;;;19.49;81.16;100163.25;5111536;28;21122;-58
2023/09/01 05:49:31;;;;;;;3.30;1.67;;;;;;;19.33;83.45;100162.63;5110483;28;20520;-59
2023/09/01 05:51:57;;;;;;;4.60;2.03;;;;;;;19.28;83.63;100162.16;5108356;28;20273;-59
2023/09/01 05:54:22;;;;;;;3.23;1.30;;;;;;;19.19;83.56;100161.56;5074438;28;20171;-59
2023/09/01 05:56:48;;;;;;;3.80;1.60;;;;;;;19.19;84.79;100153.84;5110780;28;20182;-58
2023/09/01 05:59:13;;;;;;;3.97;1.80;;;;;;;19.11;86.12;100160.66;5095169;28;20174;-59
2023/09/01 06:01:40;;;;;;;3.10;1.63;;;;;;;19.14;85.18;100153.34;5106060;28;20205;-59
2023/09/01 06:04:05;;;;;;;6.37;1.80;;;;;;;19.19;84.83;100156.69;5098300;28;20178;-59
2023/09/01 06:06:35;;;;;;;3.00;1.50;;;;;;;19.15;85.35;100164.41;5099365;28;20459;-59
2023/09/01 06:09:04;;;;;;;4.00;1.60;;;;;;;19.14;85.64;100159.91;5092535;28;20182;-59
2023/09/01 06:11:31;;;;;;;3.80;1.80;;;;;;;19.04;87.09;100166.31;5095153;28;20945;-59
2023/09/01 06:13:57;;;;;;;6.73;2.47;;;;;;;19.36;87.47;100163.91;5117668;27;20428;-59
2023/09/01 06:16:22;;;;;;;5.97;2.50;;;;;;;19.80;88.24;100168.50;5097129;28;20462;-59
2023/09/01 06:18:48;;;;;;;7.60;3.23;;;;;;;19.96;89.19;100169.09;5095952;28;20269;-59
2023/09/01 06:21:15;;;;;;;10.40;3.20;;;;;;;19.52;89.53;100176.75;5098482;27;20181;-58
2023/09/01 06:23:44;;;;;;;9.03;3.17;;;;;;;19.39;91.10;100183.97;5100061;28;20178;-59
2023/09/01 06:26:11;;;;;;;8.57;2.70;;;;;;;19.46;90.49;100178.31;5094315;28;20436;-58
2023/09/01 06:28:37;;;;;;;11.63;2.77;;;;;;;19.50;90.38;100184.94;5095786;28;20820;-58
2023/09/01 06:31:02;;;;;;;6.23;2.20;;;;;;;19.49;90.32;100182.44;5068808;28;20436;-59
2023/09/01 06:33:28;;;;;;;6.00;2.57;;;;;;;19.43;90.13;100184.00;5098116;28;20264;-58
2023/09/01 06:35:53;;;;;;;5.30;1.87;;;;;;;19.46;89.77;100186.91;5093999;28;20284;-58
2023/09/01 06:38:19;;;;;;;8.83;1.90;;;;;;;19.49;90.15;100189.00;5111006;28;20323;-59
2023/09/01 06:40:44;;;;;;;4.40;1.80;;;;;;;19.37;90.36;100182.72;5106513;28;20178;-59
2023/09/01 06:43:10;;;;;;;5.00;2.50;;;;;;;19.25;90.95;100182.94;5110420;28;20177;-59
2023/09/01 06:45:35;;;;;;;5.20;2.50;;;;;;;19.31;90.89;100182.22;5105651;28;20183;-58
2023/09/01 06:48:00;;;;;;;3.80;1.83;;;;;;;19.52;89.51;100187.41;5094327;28;20205;-58
2023/09/01 06:50:27;;;;;;;5.80;2.33;;;;;;;19.50;90.00;100182.06;5095222;28;20563;-59
2023/09/01 06:52:53;;;;;;;4.90;2.20;;;;;;;19.32;90.92;100183.06;5099036;28;20181;-59
2023/09/01 06:55:18;;;;;;;3.50;2.00;;;;;;;19.42;90.80;100188.91;5110356;28;20411;-58
2023/09/01 06:57:44;;;;;;;5.53;1.90;;;;;;;19.38;90.86;100190.94;5108773;28;20236;-59
2023/09/01 07:00:10;;;;;;;3.30;1.43;;;;;;;19.63;90.18;100183.47;5091631;28;20186;-59
2023/09/01 07:02:35;;;;;;;4.83;2.10;;;;;;;19.75;90.35;100188.06;5098193;28;20189;-59
2023/09/01 07:05:02;;;;;;;5.23;2.10;;;;;;;19.80;89.41;100184.84;5104586;28;20439;-58
2023/09/01 07:07:28;;;;;;;3.60;1.80;;;;;;;19.49;90.69;100183.28;5108882;28;20213;-58
2023/09/01 07:09:54;;;;;;;4.67;2.20;;;;;;;19.48;91.65;100186.53;5099775;28;20451;-59
2023/09/01 07:12:19;;;;;;;7.87;1.90;;;;;;;19.65;90.59;100180.19;5108692;28;20621;-58
2023/09/01 07:14:45;;;;;;;5.60;1.80;;;;;;;19.48;90.23;100183.66;5097094;28;20181;-59
2023/09/01 07:17:11;;;;;;;3.77;1.90;;;;;;;19.39;91.44;100180.28;5110109;28;20178;-59
2023/09/01 07:19:36;;;;;;;2.53;1.67;;;;;;;19.39;90.63;100174.56;5107747;28;20158;-58
2023/09/01 07:22:03;;;;;;;5.80;2.17;;;;;;;19.39;90.79;100177.41;5100877;28;20467;-59
2023/09/01 07:24:28;;;;;;;7.47;1.90;;;;;;;19.61;89.72;100182.22;5090170;28;20776;-58
2023/09/01 07:26:54;;;;;;;4.40;1.80;;;;;;;19.52;89.85;100184.53;5089351;28;20452;-59
2023/09/01 07:29:19;;;;;;;4.43;1.70;;;;;;;19.41;89.52;100181.53;5085891;28;20193;-59
2023/09/01 07:31:45;;;;;;;3.67;1.83;;;;;;;19.37;89.73;100174.94;5107664;28;20181;-59
2023/09/01 07:34:10;;;;;;;3.37;1.97;;;;;;;19.31;89.81;100173.63;5106887;28;20178;-58
2023/09/01 07:36:35;;;;;;;3.80;1.70;;;;;;;19.55;88.98;100178.00;5108765;28;20181;-59
2023/09/01 07:39:01;;;;;;;5.77;2.17;;;;;;;19.53;89.21;100172.72;5100306;28;20193;-60
2023/09/01 07:41:27;;;;;;;6.87;2.20;;;;;;;19.28;89.65;100182.19;5093539;28;20194;-58
2023/09/01 07:43:52;;;;;;;5.33;2.37;;;;;;;19.20;90.28;100175.50;5100902;28;20174;-58
2023/09/01 07:46:18;;;;;;;4.40;2.00;;;;;;;19.30;89.76;100192.03;5105475;28;20181;-58
2023/09/01 07:48:43;;;;;;;7.83;1.97;;;;;;;19.29;90.17;100189.56;5102560;28;20198;-58
2023/09/01 07:51:08;;;;;;;5.13;2.30;;;;;;;19.38;89.26;100195.81;5099886;28;20174;-58
2023/09/01 07:53:34;;;;;;;2.80;1.83;;;;;;;19.40;89.68;100179.06;5106833;28;20572;-58
2023/09/01 07:55:59;;;;;;;4.63;2.03;;;;;;;19.39;90.18;100181.13;5098728;28;20173;-59
2023/09/01 07:58:25;;;;;;;4.57;2.47;;;;;;;19.47;89.68;100179.16;5082319;28;20173;-58
2023/09/01 08:00:51;;;;;;;3.63;1.97;;;;;;;19.50;89.77;100187.78;5090111;28;20177;-58
2023/09/01 08:03:17;;;;;;;6.80;2.27;;;;;;;19.46;89.97;100188.97;5091573;28;20723;-59
2023/09/01 08:05:42;;;;;;;4.97;2.13;;;;;;;19.51;90.38;100182.91;5087458;28;20404;-58
2023/09/01 08:08:08;;;;;;;5.10;2.30;;;;;;;19.55;89.90;100181.72;5097786;28;21006;-58
2023/09/01 08:10:33;;;;;;;7.43;2.60;;;;;;;19.63;89.78;100192.06;5075872;28;20647;-58
2023/09/01 08:12:59;;;;;;;7.17;3.80;;;;;;;19.54;89.96;100188.66;5092925;27;20244;-58
2023/09/01 08:15:24;;;;;;;12.20;5.40;;;;;;;19.71;88.88;100195.81;5097342;28;20206;-59
2023/09/01 08:17:50;;;;;;;6.37;2.93;;;;;;;19.77;88.08;100188.53;5093878;28;20190;-60
2023/09/01 08:20:17;;;;;;;10.40;3.57;;;;;;;19.85;87.94;100191.06;5101473;28;20174;-59
2023/09/01 08:22:42;;;;;;;6.87;3.00;;;;;;;19.81;87.89;100190.19;5096639;28;20221;-59
2023/09/01 08:25:09;;;;;;;7.23;2.50;;;;;;;19.78;88.14;100202.47;5101876;27;20513;-60
2023/09/01 08:27:34;;;;;;;5.50;2.83;;;;;;;19.82;88.64;100199.63;5098838;28;20205;-59
2023/09/01 08:30:00;;;;;;;5.20;2.70;;;;;;;19.83;88.31;100192.69;5104046;28;20431;-58
2023/09/01 08:32:25;;;;;;;6.77;2.87;;;;;;;19.85;88.17;100202.53;5108732;28;20624;-59
2023/09/01 08:34:51;;;;;;;7.50;2.30;;;;;;;19.83;87.84;100207.00;5097232;28;20653;-59
2023/09/01 08:37:17;;;;;;;7.23;2.33;;;;;;;19.78;88.03;100201.63;5108615;28;20858;-59
2023/09/01 08:39:43;;;;;;;6.10;2.70;;;;;;;19.77;88.63;100208.56;5108509;28;20633;-59
2023/09/01 08:42:09;;;;;;;6.03;2.20;;;;;;;19.76;88.30;100209.81;5106313;28;20412;-59
2023/09/01 08:44:35;;;;;;;7.50;2.50;;;;;;;19.74;88.00;100212.22;5091944;28;20547;-59
2023/09/01 08:47:01;;;;;;;6.63;3.03;;;;;;;19.68;89.22;100208.91;5088258;28;20263;-59
2023/09/01 08:49:26;;;;;;;4.83;2.60;;;;;;;19.73;89.20;100207.69;5076428;28;20468;-59
2023/09/01 08:51:56;;;;;;;9.10;2.40;;;;;;;19.75;88.10;100208.97;5072162;28;20190;-59
2023/09/01 08:54:21;;;;;;;4.63;2.07;;;;;;;19.85;88.11;100211.13;5089185;28;20253;-59
2023/09/01 08:56:48;;;;;;;4.30;2.53;;;;;;;19.82;87.28;100211.91;5088921;28;20447;-59
2023/09/01 08:59:13;;;;;;;6.33;2.60;;;;;;;19.81;88.22;100204.53;5091027;28;20216;-59
2023/09/01 09:01:39;;;;;;;7.20;2.50;;;;;;;19.81;88.34;100209.44;5089551;28;20432;-59
2023/09/01 09:04:05;;;;;;;4.50;1.90;;;;;;;19.83;88.15;100204.13;5087692;28;20185;-58
2023/09/01 09:06:35;;;;;;;5.70;2.60;;;;;;;19.80;87.76;100207.78;5103995;28;20185;-59
2023/09/01 09:09:05;;;;;;;8.50;2.10;;;;;;;19.85;86.57;100211.13;5105920;28;20911;-58
2023/09/01 09:11:31;;;;;;;5.10;2.40;;;;;;;19.87;86.42;100205.81;5127192;28;20431;-59
2023/09/01 09:13:56;;;;;;;4.00;2.30;;;;;;;19.93;85.58;100204.28;5100178;28;20489;-59
2023/09/01 09:16:22;;;;;;;4.67;2.00;;;;;;;19.91;86.00;100205.88;5095154;28;20192;-59
2023/09/01 09:18:47;;;;;;;5.07;2.33;;;;;;;19.90;86.74;100202.19;5105132;28;20193;-59
2023/09/01 09:21:26;;;;;;;6.20;2.53;;;;;;;19.92;85.67;100204.66;5106149;28;20192;-59
2023/09/01 09:23:52;;;;;;;6.53;2.60;;;;;;;19.98;85.50;100200.22;5093019;28;20208;-59
2023/09/01 09:26:26;;;;;;;4.30;2.10;;;;;;;20.03;84.80;100208.44;5098591;28;20500;-58
2023/09/01 09:28:52;;;;;;;4.83;2.10;;;;;;;20.05;85.42;100192.50;5104038;28;20981;-59
2023/09/01 09:31:18;;;;;;;8.27;2.70;;;;;;;20.09;85.10;100193.41;5087913;28;20405;-59
2023/09/01 09:33:44;;;;;;;2.80;1.90;;;;;;;20.11;84.77;100193.03;5092345;28;20194;-59
2023/09/01 09:36:10;;;;;;;5.27;2.30;;;;;;;20.11;84.41;100198.75;5095128;28;20922;-58
2023/09/01 09:38:43;;;;;;;7.53;3.10;;;;;;;20.13;83.75;100202.88;5089990;28;20407;-59
2023/09/01 09:41:08;;;;;;;5.63;2.60;;;;;;;20.15;83.93;100199.59;5101612;28;20266;-59
2023/09/01 09:43:43;;;;;;;5.03;2.00;;;;;;;20.19;84.05;100200.47;5087633;28;20432;-59
2023/09/01 09:46:09;;;;;;;4.30;2.10;;;;;;;20.23;84.43;100196.44;5086293;28;20162;-59
2023/09/01 09:48:35;;;;;;;4.97;2.67;;;;;;;20.28;83.89;100198.94;5103516;28;20567;-59
2023/09/01 09:51:00;;;;;;;5.47;2.63;;;;;;;20.31;83.01;100195.25;5107336;28;20202;-59
2023/09/01 09:53:26;;;;;;;7.43;3.10;;;;;;;20.33;83.82;100201.44;5106889;28;20201;-58
2023/09/01 09:55:51;;;;;;;4.80;2.20;;;;;;;20.35;82.83;100204.72;5086002;28;20185;-59
2023/09/01 09:58:17;;;;;;;4.03;2.20;;;;;;;20.36;83.05;100191.22;5076315;28;20173;-59
2023/09/01 10:00:51;;;;;;;6.30;2.40;;;;;;;20.38;82.92;100205.97;5127789;28;20184;-59
2023/09/01 10:03:16;;;;;;;5.73;2.27;;;;;;;20.41;83.56;100203.13;5105100;28;20192;-59
2023/09/01 10:05:42;;;;;;;4.20;2.33;;;;;;;20.38;83.25;100203.09;5108029;28;20416;-60
2023/09/01 10:08:08;;;;;;;6.17;2.33;;;;;;;20.44;83.24;100202.34;5088788;28;20217;-59
2023/09/01 10:10:34;;;;;;;4.77;2.30;;;;;;;20.51;83.48;100208.13;5108246;28;21089;-59
2023/09/01 10:13:06;;;;;;;5.87;2.60;;;;;;;20.49;83.78;100198.28;5106280;28;20228;-59
2023/09/01 10:15:33;;;;;;;5.87;2.17;;;;;;;20.59;83.40;100194.69;5091000;28;20420;-59
2023/09/01 10:18:01;;;;;;;5.07;2.40;;;;;;;20.58;83.14;100199.56;5072408;28;20412;-59
2023/09/01 10:20:28;;;;;;;7.87;2.70;;;;;;;20.55;83.22;100203.25;5090441;28;20428;-58
2023/09/01 10:22:54;;;;;;;6.77;2.40;;;;;;;20.58;83.55;100210.25;5091794;28;20476;-59
2023/09/01 10:25:20;;;;;;;5.80;3.60;;;;;;;20.51;83.30;100207.28;5095559;27;20447;-59
2023/09/01 10:28:11;;;;;;;10.53;3.93;;;;;;;20.61;83.04;100204.53;5127509;27;20820;-59
2023/09/01 10:30:40;;;;;;;9.40;4.53;;;;;;;20.59;82.89;100203.28;5093497;28;20661;-59
2023/09/01 10:33:15;;;;;;;8.70;5.50;;;;;;;20.59;83.20;100204.13;5110446;28;20512;-59
2023/09/01 10:35:50;;;;;;;24.50;12.83;;;;;;;20.58;83.27;100207.38;5100069;28;20435;-59
2023/09/01 10:38:19;;;;;;;17.57;9.77;;;;;;;20.59;83.06;100209.84;5090068;28;20536;-59
2023/09/01 10:40:52;;;;;;;25.03;13.47;;;;;;;20.59;83.57;100201.25;5092169;28;20862;-59
2023/09/01 10:43:33;;;;;;;23.57;12.50;;;;;;;20.58;83.30;100213.13;5090160;28;21163;-59
2023/09/01 10:46:16;;;;;;;20.27;11.23;;;;;;;20.59;83.20;100214.75;5090610;28;20467;-59
2023/09/01 10:48:59;;;;;;;16.33;9.23;;;;;;;20.68;83.36;100210.31;5091768;28;21011;-59
2023/09/01 10:51:39;;;;;;;11.67;7.20;;;;;;;20.71;83.04;100206.66;5090007;28;20473;-59
2023/09/01 10:54:14;;;;;;;12.47;7.63;;;;;;;20.63;83.39;100212.75;5069282;28;20938;-59
2023/09/01 10:56:56;;;;;;;11.40;6.10;;;;;;;20.62;82.85;100208.25;5092057;28;20431;-60
2023/09/01 10:59:29;;;;;;;10.70;5.07;;;;;;;20.63;83.30;100210.69;5114586;27;20442;-59
2023/09/01 11:01:54;;;;;;;10.13;5.07;;;;;;;20.71;82.71;100211.56;5108332;28;20432;-60
2023/09/01 11:04:22;;;;;;;8.30;5.10;;;;;;;20.63;82.50;100207.81;5109017;28;20420;-59
2023/09/01 11:07:00;;;;;;;8.60;3.70;;;;;;;20.67;82.42;100211.53;5102701;28;20276;-59
2023/09/01 11:09:46;;;;;;;7.63;3.47;;;;;;;20.83;82.00;100217.00;5105279;27;20428;-59
2023/09/01 11:12:12;;;;;;;5.83;3.73;;;;;;;20.81;81.60;100219.44;5088626;28;20462;-59
2023/09/01 11:14:39;;;;;;;6.90;3.60;;;;;;;20.85;81.88;100212.50;5091772;28;20466;-59
2023/09/01 11:17:05;;;;;;;10.83;3.60;;;;;;;20.78;81.26;100205.91;5071009;28;20213;-59
2023/09/01 11:19:32;;;;;;;7.63;3.83;;;;;;;20.86;80.85;100205.53;5081127;28;20444;-60
2023/09/01 11:21:58;;;;;;;11.00;4.03;;;;;;;20.91;81.22;100210.09;5091030;28;20694;-59